Time,TemperatureF,DewpointF,PressureIn,WindDirection,WindDirectionDegrees,WindSpeedMPH,WindSpeedGustMPH,Humidity,HourlyPrecipIn,Conditions,Clouds,dailyrainin,SoftwareType,DateUTC
2013-03-06 04:38:00,36.8,31.5,29.58,WNW,292,3.0,13.0,81,0.00,,SKC,0.13,VWS V14.01,2013-03-06 09:38:00,
2013-03-06 04:40:00,36.7,30.8,29.58,WSW,256,2.0,13.0,79,0.00,,SKC,0.12,VWS V14.01,2013-03-06 09:40:00,
2013-03-06 04:44:00,36.6,30.1,29.58,NW,319,4.0,13.0,77,0.00,,SKC,0.12,VWS V14.01,2013-03-06 09:44:00,
2013-03-06 04:50:00,36.5,30.0,29.58,WNW,297,1.0,13.0,77,0.00,,SKC,0.12,VWS V14.01,2013-03-06 09:50:00,
2013-03-06 04:55:00,36.3,30.1,29.58,NW,305,2.0,13.0,78,0.00,,SKC,0.12,VWS V14.01,2013-03-06 09:55:00,
2013-03-06 04:58:00,36.2,29.7,29.59,NW,309,3.0,13.0,77,0.00,,SKC,0.12,VWS V14.01,2013-03-06 09:58:00,
2013-03-06 05:04:00,36.1,29.0,29.58,NW,321,1.0,13.0,75,0.00,,SKC,0.12,VWS V14.01,2013-03-06 10:04:00,
2013-03-06 05:10:00,36.0,28.9,29.59,West,278,3.0,13.0,75,0.00,,SKC,0.12,VWS V14.01,2013-03-06 10:10:00,
2013-03-06 05:15:00,36.0,28.5,29.59,WNW,287,4.0,13.0,74,0.00,,SKC,0.12,VWS V14.01,2013-03-06 10:15:00,
2013-03-06 05:20:00,36.0,27.9,29.59,NW,307,2.0,13.0,72,0.00,,SKC,0.12,VWS V14.01,2013-03-06 10:20:00,
2013-03-06 05:25:00,35.9,28.1,29.59,WNW,285,5.0,13.0,73,0.00,,SKC,0.12,VWS V14.01,2013-03-06 10:25:00,
2013-03-06 05:30:00,35.9,27.8,29.60,NW,305,2.0,13.0,72,0.00,,SKC,0.12,VWS V14.01,2013-03-06 10:30:00,
2013-03-06 05:35:00,35.9,28.1,29.60,WNW,290,1.0,13.0,73,0.00,,SKC,0.12,VWS V14.01,2013-03-06 10:35:00,
2013-03-06 05:40:00,35.8,27.3,29.60,WSW,252,2.0,13.0,71,0.00,,SKC,0.12,VWS V14.01,2013-03-06 10:40:00,
2013-03-06 05:45:00,35.7,27.6,29.60,WSW,252,1.0,13.0,72,0.00,,SKC,0.12,VWS V14.01,2013-03-06 10:45:00,
2013-03-06 05:50:00,35.6,27.1,29.60,WNW,283,3.0,13.0,71,0.00,,SKC,0.12,VWS V14.01,2013-03-06 10:50:00,
2013-03-06 05:55:00,35.4,27.0,29.61,West,278,1.0,13.0,71,0.00,,SKC,0.12,VWS V14.01,2013-03-06 10:55:00,
2013-03-06 06:00:00,35.2,27.1,29.61,West,275,1.0,13.0,72,0.00,,SKC,0.12,VWS V14.01,2013-03-06 11:00:00,
2013-03-06 06:07:00,34.9,26.8,29.61,West,281,2.0,13.0,72,0.00,,SKC,0.12,VWS V14.01,2013-03-06 11:07:00,
2013-03-06 06:13:00,34.7,27.3,29.61,WSW,249,1.0,13.0,74,0.00,,SKC,0.12,VWS V14.01,2013-03-06 11:13:00,
2013-03-06 06:19:00,34.5,27.4,29.62,West,270,1.0,13.0,75,0.00,,SKC,0.12,VWS V14.01,2013-03-06 11:19:00,
2013-03-06 06:25:00,34.4,27.0,29.62,WSW,257,4.0,13.0,74,0.00,,SKC,0.12,VWS V14.01,2013-03-06 11:25:00,
2013-03-06 06:30:00,34.5,26.8,29.62,WSW,246,4.0,13.0,73,0.00,,SKC,0.12,VWS V14.01,2013-03-06 11:30:00,
2013-03-06 06:35:00,34.5,26.8,29.62,WNW,293,5.0,13.0,73,0.00,,SKC,0.12,VWS V14.01,2013-03-06 11:35:00,
2013-03-06 06:40:00,34.5,26.8,29.62,WNW,294,4.0,13.0,73,0.00,,SKC,0.12,VWS V14.01,2013-03-06 11:40:00,
2013-03-06 06:45:00,34.5,26.1,29.62,WNW,284,3.0,13.0,71,0.00,,SKC,0.12,VWS V14.01,2013-03-06 11:45:00,
2013-03-06 06:50:00,34.6,26.2,29.62,WNW,287,2.0,13.0,71,0.00,,SKC,0.12,VWS V14.01,2013-03-06 11:50:00,
2013-03-06 06:55:00,34.6,25.5,29.63,WNW,301,3.0,13.0,69,0.00,,SKC,0.12,VWS V14.01,2013-03-06 11:55:00,
2013-03-06 07:00:00,34.6,25.5,29.63,WNW,291,4.0,13.0,69,0.00,,SKC,0.12,VWS V14.01,2013-03-06 12:00:00,
2013-03-06 07:05:00,34.6,24.4,29.63,NW,315,2.0,13.0,66,0.00,,SKC,0.12,VWS V14.01,2013-03-06 12:05:00,
2013-03-06 07:11:00,34.7,24.5,29.64,WNW,301,3.0,13.0,66,0.00,,SKC,0.12,VWS V14.01,2013-03-06 12:11:00,
2013-03-06 07:17:00,34.7,24.5,29.64,WNW,295,3.0,13.0,66,0.00,,SKC,0.12,VWS V14.01,2013-03-06 12:17:00,
2013-03-06 07:23:00,34.7,24.5,29.64,NNW,335,2.0,13.0,66,0.00,,SKC,0.12,VWS V14.01,2013-03-06 12:23:00,
2013-03-06 07:29:00,34.6,24.8,29.65,NW,311,2.0,13.0,67,0.00,,SKC,0.12,VWS V14.01,2013-03-06 12:29:00,
2013-03-06 07:35:00,34.5,24.7,29.65,NW,307,3.0,13.0,67,0.00,,SKC,0.12,VWS V14.01,2013-03-06 12:35:00,
2013-03-06 07:40:00,34.6,24.8,29.66,West,278,1.0,13.0,67,0.00,,SKC,0.12,VWS V14.01,2013-03-06 12:40:00,
2013-03-06 07:45:00,34.6,24.8,29.66,WNW,297,2.0,13.0,67,0.00,,SKC,0.12,VWS V14.01,2013-03-06 12:45:00,
2013-03-06 07:50:00,34.6,24.8,29.66,WNW,300,1.0,13.0,67,0.00,,SKC,0.12,VWS V14.01,2013-03-06 12:50:00,
2013-03-06 07:55:00,34.6,24.8,29.66,NW,311,2.0,13.0,67,0.00,,SKC,0.12,VWS V14.01,2013-03-06 12:55:00,
2013-03-06 08:00:00,34.7,24.5,29.67,NW,316,4.0,13.0,66,0.00,,SKC,0.12,VWS V14.01,2013-03-06 13:00:00,
2013-03-06 08:05:00,34.7,24.5,29.67,West,281,3.0,13.0,66,0.00,,SKC,0.12,VWS V14.01,2013-03-06 13:05:00,
2013-03-06 08:10:00,35.0,25.2,29.67,WNW,300,3.0,13.0,67,0.00,,SKC,0.12,VWS V14.01,2013-03-06 13:10:00,
2013-03-06 08:15:00,35.3,25.5,29.68,West,277,4.0,13.0,67,0.00,,SKC,0.12,VWS V14.01,2013-03-06 13:15:00,
2013-03-06 08:20:00,35.7,25.5,29.68,WNW,283,5.0,13.0,66,0.00,,SKC,0.12,VWS V14.01,2013-03-06 13:20:00,
2013-03-06 08:25:00,35.7,25.1,29.68,WNW,288,5.0,13.0,65,0.00,,SKC,0.12,VWS V14.01,2013-03-06 13:25:00,
2013-03-06 08:30:00,35.8,25.2,29.68,WNW,295,4.0,13.0,65,0.00,,SKC,0.12,VWS V14.01,2013-03-06 13:30:00,
2013-03-06 08:35:00,35.8,25.2,29.68,NNE,19,4.0,13.0,65,0.00,,SKC,0.12,VWS V14.01,2013-03-06 13:35:00,
2013-03-06 08:40:00,36.0,25.4,29.68,NW,316,6.0,13.0,65,0.00,,SKC,0.12,VWS V14.01,2013-03-06 13:40:00,
2013-03-06 08:46:00,36.1,25.5,29.69,WNW,284,7.0,13.0,65,0.00,,SKC,0.12,VWS V14.01,2013-03-06 13:46:00,
2013-03-06 08:52:00,36.0,25.0,29.69,West,281,3.0,13.0,64,0.00,,SKC,0.12,VWS V14.01,2013-03-06 13:52:00,
2013-03-06 08:58:00,36.1,25.5,29.69,NW,311,3.0,13.0,65,0.00,,SKC,0.12,VWS V14.01,2013-03-06 13:58:00,
2013-03-06 09:04:00,36.4,26.1,29.69,West,264,5.0,13.0,66,0.00,,SKC,0.12,VWS V14.01,2013-03-06 14:04:00,
2013-03-06 09:10:00,37.0,26.7,29.70,West,266,2.0,13.0,66,0.00,,SKC,0.12,VWS V14.01,2013-03-06 14:10:00,
2013-03-06 09:15:00,37.4,26.4,29.70,West,278,3.0,13.0,64,0.00,,SKC,0.12,VWS V14.01,2013-03-06 14:15:00,
2013-03-06 09:20:00,37.6,25.8,29.70,NW,305,4.0,13.0,62,0.00,,SKC,0.12,VWS V14.01,2013-03-06 14:20:00,
2013-03-06 09:25:00,38.0,26.5,29.70,WNW,289,4.0,13.0,63,0.00,,SKC,0.12,VWS V14.01,2013-03-06 14:25:00,
2013-03-06 09:30:00,38.3,26.0,29.70,NW,311,4.0,13.0,61,0.00,,SKC,0.12,VWS V14.01,2013-03-06 14:30:00,
2013-03-06 09:35:00,38.4,25.7,29.70,NNW,332,5.0,13.0,60,0.00,,SKC,0.12,VWS V14.01,2013-03-06 14:35:00,
2013-03-06 09:40:00,38.5,25.8,29.70,NW,311,2.0,13.0,60,0.00,,SKC,0.12,VWS V14.01,2013-03-06 14:40:00,
2013-03-06 09:46:00,38.4,26.1,29.70,NW,314,3.0,13.0,61,0.00,,SKC,0.12,VWS V14.01,2013-03-06 14:46:00,
2013-03-06 09:52:00,38.1,25.5,29.70,WNW,302,4.0,13.0,60,0.00,,SKC,0.12,VWS V14.01,2013-03-06 14:52:00,
2013-03-06 09:58:00,38.3,25.2,29.71,West,274,5.0,13.0,59,0.00,,SKC,0.12,VWS V14.01,2013-03-06 14:58:00,
2013-03-06 10:04:00,37.6,25.0,29.71,West,272,9.0,13.0,60,0.00,,SKC,0.12,VWS V14.01,2013-03-06 15:04:00,
2013-03-06 10:10:00,37.9,25.3,29.71,NW,321,7.0,13.0,60,0.00,,SKC,0.12,VWS V14.01,2013-03-06 15:10:00,
2013-03-06 10:15:00,38.8,26.5,29.71,WNW,294,6.0,13.0,61,0.00,,SKC,0.12,VWS V14.01,2013-03-06 15:15:00,
2013-03-06 10:20:00,39.1,26.0,29.71,NNW,330,7.0,13.0,59,0.00,,SKC,0.12,VWS V14.01,2013-03-06 15:20:00,
2013-03-06 10:26:00,38.8,25.3,29.71,NW,319,5.0,13.0,58,0.00,,SKC,0.12,VWS V14.01,2013-03-06 15:26:00,
2013-03-06 10:32:00,38.9,25.8,29.71,North,360,1.0,13.0,59,0.00,,SKC,0.12,VWS V14.01,2013-03-06 15:32:00,
2013-03-06 10:39:00,38.6,25.5,29.71,NW,305,5.0,13.0,59,0.00,,SKC,0.12,VWS V14.01,2013-03-06 15:39:00,
2013-03-06 10:45:00,39.5,26.8,29.72,WNW,291,3.0,13.0,60,0.00,,SKC,0.12,VWS V14.01,2013-03-06 15:45:00,
2013-03-06 10:50:00,39.7,27.0,29.72,West,281,4.0,13.0,60,0.00,,SKC,0.12,VWS V14.01,2013-03-06 15:50:00,
2013-03-06 10:57:00,40.8,28.0,29.73,NW,325,7.0,13.0,60,0.00,,SKC,0.12,VWS V14.01,2013-03-06 15:57:00,
2013-03-06 11:03:00,40.5,26.9,29.73,WNW,297,6.0,13.0,58,0.00,,SKC,0.12,VWS V14.01,2013-03-06 16:03:00,
2013-03-06 11:09:00,40.7,27.5,29.72,WNW,290,8.0,13.0,59,0.00,,SKC,0.12,VWS V14.01,2013-03-06 16:09:00,
2013-03-06 11:15:00,41.1,27.0,29.72,NNW,343,4.0,13.0,57,0.00,,SKC,0.12,VWS V14.01,2013-03-06 16:15:00,
2013-03-06 11:20:00,42.0,27.5,29.72,West,271,6.0,13.0,56,0.00,,SKC,0.12,VWS V14.01,2013-03-06 16:20:00,
2013-03-06 11:27:00,42.4,27.4,29.72,NW,322,7.0,13.0,55,0.00,,SKC,0.12,VWS V14.01,2013-03-06 16:27:00,
2013-03-06 11:33:00,42.3,26.9,29.73,WNW,297,11.0,13.0,54,0.00,,SKC,0.12,VWS V14.01,2013-03-06 16:33:00,
2013-03-06 11:39:00,41.9,27.4,29.72,WSW,256,11.0,13.0,56,0.00,,SKC,0.12,VWS V14.01,2013-03-06 16:39:00,
2013-03-06 11:45:00,41.9,26.9,29.72,WSW,257,8.0,13.0,55,0.00,,SKC,0.12,VWS V14.01,2013-03-06 16:45:00,
2013-03-06 12:34:00,43.8,27.8,29.73,WNW,292,6.0,12.0,53,0.00,,SKC,0.00,VWS V14.01,2013-03-06 17:34:00,
2013-03-06 12:40:00,44.7,29.1,29.73,NW,323,4.0,12.0,54,0.00,,SKC,0.12,VWS V14.01,2013-03-06 17:40:00,
2013-03-06 12:45:00,44.3,28.7,29.74,NW,325,7.0,12.0,54,0.00,,SKC,0.12,VWS V14.01,2013-03-06 17:45:00,
2013-03-06 12:50:00,44.9,28.4,29.74,WNW,299,3.0,12.0,52,0.00,,SKC,0.12,VWS V14.01,2013-03-06 17:50:00,
2013-03-06 12:55:00,44.8,28.3,29.74,NW,304,2.0,12.0,52,0.12,,SKC,0.12,VWS V14.01,2013-03-06 17:55:00,
2013-03-06 13:00:00,44.9,28.4,29.74,North,5,9.0,12.0,52,0.12,,SKC,0.12,VWS V14.01,2013-03-06 18:00:00,
2013-03-06 13:05:00,45.0,28.5,29.74,West,278,7.0,12.0,52,0.12,,SKC,0.12,VWS V14.01,2013-03-06 18:05:00,
2013-03-06 13:10:00,44.9,28.8,29.74,WNW,285,7.0,12.0,53,0.12,,SKC,0.12,VWS V14.01,2013-03-06 18:10:00,
2013-03-06 13:15:00,45.2,29.1,29.74,North,349,8.0,12.0,53,0.12,,SKC,0.12,VWS V14.01,2013-03-06 18:15:00,
2013-03-06 13:20:00,44.8,28.3,29.74,WNW,285,5.0,12.0,52,0.12,,SKC,0.12,VWS V14.01,2013-03-06 18:20:00,
2013-03-06 13:25:00,45.1,28.5,29.74,NW,305,9.0,12.0,52,0.12,,SKC,0.12,VWS V14.01,2013-03-06 18:25:00,
2013-03-06 13:30:00,45.0,28.9,29.74,NNW,330,10.0,12.0,53,0.12,,SKC,0.12,VWS V14.01,2013-03-06 18:30:00,
2013-03-06 13:35:00,45.0,28.5,29.75,NW,304,4.0,12.0,52,0.00,,SKC,0.12,VWS V14.01,2013-03-06 18:35:00,
2013-03-06 13:40:00,45.0,28.9,29.74,NW,326,6.0,12.0,53,0.00,,SKC,0.12,VWS V14.01,2013-03-06 18:40:00,
2013-03-06 13:45:00,45.3,29.2,29.74,NNW,327,5.0,12.0,53,0.00,,SKC,0.12,VWS V14.01,2013-03-06 18:45:00,
2013-03-06 13:50:00,45.3,28.2,29.75,WNW,293,5.0,12.0,51,0.00,,SKC,0.12,VWS V14.01,2013-03-06 18:50:00,
2013-03-06 13:55:00,45.4,28.8,29.74,NNW,332,5.0,12.0,52,0.00,,SKC,0.12,VWS V14.01,2013-03-06 18:55:00,
2013-03-06 14:00:00,45.3,29.2,29.74,NW,325,7.0,12.0,53,0.00,,SKC,0.12,VWS V14.01,2013-03-06 19:00:00,
2013-03-06 14:05:00,45.2,28.6,29.74,NNW,342,4.0,12.0,52,0.00,,SKC,0.12,VWS V14.01,2013-03-06 19:05:00,
2013-03-06 14:10:00,45.3,28.7,29.74,WSW,255,3.0,12.0,52,0.00,,SKC,0.12,VWS V14.01,2013-03-06 19:10:00,
2013-03-06 14:15:00,45.3,28.2,29.75,WNW,293,7.0,12.0,51,0.00,,SKC,0.12,VWS V14.01,2013-03-06 19:15:00,
2013-03-06 14:20:00,45.5,29.4,29.75,WNW,298,7.0,12.0,53,0.00,,SKC,0.12,VWS V14.01,2013-03-06 19:20:00,
2013-03-06 14:25:00,45.2,28.6,29.75,NW,311,4.0,12.0,52,0.00,,SKC,0.12,VWS V14.01,2013-03-06 19:25:00,
2013-03-06 14:30:00,45.3,28.7,29.76,NW,319,5.0,12.0,52,0.00,,SKC,0.12,VWS V14.01,2013-03-06 19:30:00,
2013-03-06 14:35:00,45.2,29.1,29.76,NW,307,6.0,12.0,53,0.00,,SKC,0.12,VWS V14.01,2013-03-06 19:35:00,
2013-03-06 14:40:00,45.4,29.3,29.77,NW,317,6.0,12.0,53,0.00,,SKC,0.12,VWS V14.01,2013-03-06 19:40:00,
2013-03-06 14:45:00,45.4,28.8,29.77,WNW,294,5.0,12.0,52,0.00,,SKC,0.12,VWS V14.01,2013-03-06 19:45:00,
2013-03-06 14:50:00,45.5,28.9,29.78,NNW,333,5.0,12.0,52,0.00,,SKC,0.12,VWS V14.01,2013-03-06 19:50:00,
2013-03-06 14:55:00,45.4,29.3,29.79,WNW,288,12.0,12.0,53,0.00,,SKC,0.12,VWS V14.01,2013-03-06 19:55:00,
2013-03-06 15:00:00,45.0,28.9,29.79,NW,315,4.0,12.0,53,0.00,,SKC,0.12,VWS V14.01,2013-03-06 20:00:00,
2013-03-06 15:05:00,44.9,29.3,29.79,NNW,332,5.0,12.0,54,0.00,,SKC,0.12,VWS V14.01,2013-03-06 20:05:00,
2013-03-06 15:10:00,45.2,29.6,29.80,NW,316,6.0,12.0,54,0.00,,SKC,0.12,VWS V14.01,2013-03-06 20:10:00,
2013-03-06 15:15:00,45.4,30.2,29.80,WNW,293,3.0,12.0,55,0.00,,SKC,0.12,VWS V14.01,2013-03-06 20:15:00,
2013-03-06 15:20:00,45.1,29.0,29.80,NW,319,4.0,12.0,53,0.00,,SKC,0.12,VWS V14.01,2013-03-06 20:20:00,
2013-03-06 15:25:00,44.4,29.3,29.81,WNW,295,5.0,12.0,55,0.00,,SKC,0.12,VWS V14.01,2013-03-06 20:25:00,
2013-03-06 15:30:00,44.9,29.3,29.81,WNW,293,4.0,12.0,54,0.00,,SKC,0.12,VWS V14.01,2013-03-06 20:30:00,
2013-03-06 15:35:00,43.8,28.2,29.82,West,274,5.0,12.0,54,0.00,,SKC,0.12,VWS V14.01,2013-03-06 20:35:00,
2013-03-06 15:40:00,43.1,28.5,29.82,WNW,283,3.0,12.0,56,0.00,,SKC,0.12,VWS V14.01,2013-03-06 20:40:00,
2013-03-06 15:45:00,42.7,28.1,29.83,NW,304,5.0,12.0,56,0.00,,SKC,0.12,VWS V14.01,2013-03-06 20:45:00,
2013-03-06 15:50:00,42.1,28.0,29.83,NW,309,5.0,12.0,57,0.00,,SKC,0.12,VWS V14.01,2013-03-06 20:50:00,
2013-03-06 15:55:00,41.8,28.5,29.84,WNW,288,5.0,12.0,59,0.00,,SKC,0.12,VWS V14.01,2013-03-06 20:55:00,
2013-03-06 16:00:00,41.6,28.4,29.84,NW,314,4.0,12.0,59,0.00,,SKC,0.12,VWS V14.01,2013-03-06 21:00:00,
2013-03-06 16:05:00,41.4,28.2,29.85,West,278,8.0,12.0,59,0.00,,SKC,0.12,VWS V14.01,2013-03-06 21:05:00,
2013-03-06 16:10:00,41.2,28.4,29.85,NNW,333,3.0,12.0,60,0.00,,SKC,0.12,VWS V14.01,2013-03-06 21:10:00,
2013-03-06 16:15:00,41.0,28.2,29.86,WNW,293,3.0,12.0,60,0.00,,SKC,0.12,VWS V14.01,2013-03-06 21:15:00,
2013-03-06 16:20:00,40.8,28.0,29.86,NW,305,2.0,12.0,60,0.00,,SKC,0.12,VWS V14.01,2013-03-06 21:20:00,
2013-03-06 16:25:00,40.7,28.3,29.87,WNW,293,4.0,12.0,61,0.00,,SKC,0.12,VWS V14.01,2013-03-06 21:25:00,
2013-03-06 16:30:00,40.8,28.4,29.87,SSW,200,1.0,12.0,61,0.00,,SKC,0.12,VWS V14.01,2013-03-06 21:30:00,
2013-03-06 16:35:00,40.9,28.5,29.88,West,262,6.0,12.0,61,0.00,,SKC,0.12,VWS V14.01,2013-03-06 21:35:00,
2013-03-06 16:40:00,40.9,28.5,29.88,West,281,1.0,12.0,61,0.00,,SKC,0.12,VWS V14.01,2013-03-06 21:40:00,
2013-03-06 16:45:00,40.9,28.5,29.88,WNW,285,1.0,12.0,61,0.00,,SKC,0.12,VWS V14.01,2013-03-06 21:45:00,
2013-03-06 16:50:00,40.8,28.4,29.88,NW,305,8.0,12.0,61,0.00,,SKC,0.12,VWS V14.01,2013-03-06 21:50:00,
2013-03-06 16:55:00,40.8,28.4,29.89,NW,311,3.0,12.0,61,0.00,,SKC,0.12,VWS V14.01,2013-03-06 21:55:00,
2013-03-06 17:00:00,40.7,28.7,29.89,WNW,295,4.0,12.0,62,0.00,,SKC,0.12,VWS V14.01,2013-03-06 22:00:00,
2013-03-06 17:05:00,40.6,28.6,29.90,NW,319,4.0,12.0,62,0.00,,SKC,0.12,VWS V14.01,2013-03-06 22:05:00,
2013-03-06 17:10:00,40.4,28.4,29.90,WNW,298,6.0,12.0,62,0.00,,SKC,0.12,VWS V14.01,2013-03-06 22:10:00,
2013-03-06 17:15:00,40.3,28.3,29.90,WNW,300,6.0,12.0,62,0.00,,SKC,0.12,VWS V14.01,2013-03-06 22:15:00,
2013-03-06 17:20:00,40.1,28.5,29.91,NW,324,5.0,12.0,63,0.00,,SKC,0.12,VWS V14.01,2013-03-06 22:20:00,
2013-03-06 17:25:00,40.0,28.8,29.91,North,349,6.0,12.0,64,0.00,,SKC,0.12,VWS V14.01,2013-03-06 22:25:00,
2013-03-06 17:30:00,40.1,28.5,29.92,WNW,300,6.0,12.0,63,0.00,,SKC,0.12,VWS V14.01,2013-03-06 22:30:00,
2013-03-06 17:35:00,40.0,28.8,29.92,WNW,303,5.0,12.0,64,0.00,,SKC,0.12,VWS V14.01,2013-03-06 22:35:00,
2013-03-06 17:40:00,39.8,28.6,29.92,WNW,283,4.0,12.0,64,0.00,,SKC,0.12,VWS V14.01,2013-03-06 22:40:00,
2013-03-06 17:45:00,39.5,28.7,29.92,NW,321,7.0,12.0,65,0.00,,SKC,0.12,VWS V14.01,2013-03-06 22:45:00,
2013-03-06 17:50:00,39.2,28.4,29.92,WNW,297,4.0,12.0,65,0.00,,SKC,0.12,VWS V14.01,2013-03-06 22:50:00,
2013-03-06 17:55:00,38.9,28.5,29.93,NW,315,2.0,12.0,66,0.00,,SKC,0.12,VWS V14.01,2013-03-06 22:55:00,
2013-03-06 18:00:00,38.7,28.3,29.93,WNW,283,5.0,12.0,66,0.00,,SKC,0.12,VWS V14.01,2013-03-06 23:00:00,
2013-03-06 18:05:00,38.6,28.2,29.93,NW,321,4.0,12.0,66,0.00,,SKC,0.12,VWS V14.01,2013-03-06 23:05:00,
2013-03-06 18:10:00,38.4,28.4,29.93,NW,325,4.0,12.0,67,0.00,,SKC,0.12,VWS V14.01,2013-03-06 23:10:00,
2013-03-06 18:15:00,38.3,28.3,29.94,NW,313,6.0,12.0,67,0.00,,SKC,0.12,VWS V14.01,2013-03-06 23:15:00,
2013-03-06 18:22:00,38.0,28.4,29.94,NNW,338,6.0,12.0,68,0.00,,SKC,0.12,VWS V14.01,2013-03-06 23:22:00,
2013-03-06 18:28:00,37.7,28.5,29.95,NW,324,2.0,12.0,69,0.00,,SKC,0.12,VWS V14.01,2013-03-06 23:28:00,
2013-03-06 18:34:00,37.5,28.3,29.96,WNW,299,3.0,12.0,69,0.00,,SKC,0.12,VWS V14.01,2013-03-06 23:34:00,
2013-03-06 18:40:00,37.5,28.3,29.96,WNW,287,4.0,12.0,69,0.00,,SKC,0.12,VWS V14.01,2013-03-06 23:40:00,
2013-03-06 18:45:00,37.5,28.3,29.96,NW,309,5.0,12.0,69,0.00,,SKC,0.12,VWS V14.01,2013-03-06 23:45:00,
2013-03-06 18:50:00,37.4,28.2,29.96,NW,304,2.0,12.0,69,0.00,,SKC,0.12,VWS V14.01,2013-03-06 23:50:00,
2013-03-06 18:55:00,37.2,28.3,29.97,NNW,334,3.0,12.0,70,0.00,,SKC,0.12,VWS V14.01,2013-03-06 23:55:00,
2013-03-06 19:00:00,37.2,28.3,29.97,WNW,289,4.0,12.0,70,0.00,,SKC,0.12,VWS V14.01,2013-03-07 00:00:00,
2013-03-06 19:05:00,37.1,28.2,29.97,WNW,285,4.0,12.0,70,0.00,,SKC,0.12,VWS V14.01,2013-03-07 00:05:00,
2013-03-06 19:10:00,36.9,28.0,29.98,WNW,284,4.0,12.0,70,0.00,,SKC,0.12,VWS V14.01,2013-03-07 00:10:00,
2013-03-06 19:15:00,36.7,28.2,29.98,WNW,291,3.0,12.0,71,0.00,,SKC,0.12,VWS V14.01,2013-03-07 00:15:00,
2013-03-06 19:20:00,36.6,28.1,29.98,WNW,297,3.0,12.0,71,0.00,,SKC,0.12,VWS V14.01,2013-03-07 00:20:00,
2013-03-06 19:25:00,36.6,28.1,29.99,WNW,298,3.0,12.0,71,0.00,,SKC,0.12,VWS V14.01,2013-03-07 00:25:00,
2013-03-06 19:30:00,36.5,28.0,29.98,NW,321,3.0,12.0,71,0.00,,SKC,0.12,VWS V14.01,2013-03-07 00:30:00,
2013-03-06 19:35:00,36.5,28.4,29.98,WNW,302,3.0,12.0,72,0.00,,SKC,0.12,VWS V14.01,2013-03-07 00:35:00,
2013-03-06 19:40:00,36.3,28.1,29.98,WNW,288,3.0,12.0,72,0.00,,SKC,0.12,VWS V14.01,2013-03-07 00:40:00,
2013-03-06 19:45:00,36.2,28.1,29.99,NW,311,5.0,12.0,72,0.00,,SKC,0.12,VWS V14.01,2013-03-07 00:45:00,
2013-03-06 19:50:00,36.3,28.5,29.99,WNW,287,2.0,12.0,73,0.00,,SKC,0.12,VWS V14.01,2013-03-07 00:50:00,
2013-03-06 19:55:00,36.3,28.5,29.99,NW,304,5.0,12.0,73,0.00,,SKC,0.12,VWS V14.01,2013-03-07 00:55:00,
2013-03-06 20:00:00,36.3,28.5,29.99,NNW,338,2.0,12.0,73,0.00,,SKC,0.12,VWS V14.01,2013-03-07 01:00:00,
2013-03-06 20:05:00,36.1,28.3,29.99,NW,311,2.0,12.0,73,0.00,,SKC,0.12,VWS V14.01,2013-03-07 01:05:00,
2013-03-06 20:10:00,36.0,28.2,29.99,NW,313,2.0,12.0,73,0.00,,SKC,0.12,VWS V14.01,2013-03-07 01:10:00,
2013-03-06 20:15:00,35.8,28.3,29.99,WNW,300,2.0,12.0,74,0.00,,SKC,0.12,VWS V14.01,2013-03-07 01:15:00,
2013-03-06 20:21:00,36.0,28.5,29.99,NW,317,2.0,12.0,74,0.00,,SKC,0.12,VWS V14.01,2013-03-07 01:21:00,
2013-03-06 20:27:00,35.8,28.3,29.99,NNW,342,2.0,12.0,74,0.00,,SKC,0.12,VWS V14.01,2013-03-07 01:27:00,
2013-03-06 20:33:00,35.5,28.0,29.99,NW,315,2.0,12.0,74,0.00,,SKC,0.12,VWS V14.01,2013-03-07 01:33:00,
2013-03-06 20:39:00,35.4,28.3,30.00,WSW,256,0.0,12.0,75,0.00,,SKC,0.12,VWS V14.01,2013-03-07 01:39:00,
2013-03-06 20:45:00,35.0,27.6,30.00,WSW,256,0.0,12.0,74,0.00,,SKC,0.12,VWS V14.01,2013-03-07 01:45:00,
2013-03-06 20:50:00,34.5,27.4,30.00,WNW,300,2.0,12.0,75,0.00,,SKC,0.12,VWS V14.01,2013-03-07 01:50:00,
2013-03-06 20:55:00,34.6,27.8,30.00,WNW,298,0.0,12.0,76,0.00,,SKC,0.12,VWS V14.01,2013-03-07 01:55:00,
2013-03-06 21:00:00,34.6,27.8,30.01,West,280,0.0,12.0,76,0.00,,SKC,0.12,VWS V14.01,2013-03-07 02:00:00,
2013-03-06 21:06:00,34.5,28.0,30.01,West,280,0.0,12.0,77,0.00,,SKC,0.12,VWS V14.01,2013-03-07 02:06:00,
2013-03-06 21:12:00,34.5,28.0,30.01,WNW,283,2.0,12.0,77,0.00,,SKC,0.12,VWS V14.01,2013-03-07 02:12:00,
2013-03-06 21:18:00,34.3,27.9,30.01,NW,322,0.0,12.0,77,0.00,,SKC,0.12,VWS V14.01,2013-03-07 02:18:00,
2013-03-06 21:24:00,34.0,27.6,30.01,WNW,297,1.0,12.0,77,0.00,,SKC,0.12,VWS V14.01,2013-03-07 02:24:00,
2013-03-06 21:30:00,33.9,27.8,30.01,West,279,1.0,12.0,78,0.00,,SKC,0.12,VWS V14.01,2013-03-07 02:30:00,
2013-03-06 21:35:00,34.0,27.9,30.02,West,280,0.0,12.0,78,0.00,,SKC,0.12,VWS V14.01,2013-03-07 02:35:00,
2013-03-06 21:40:00,33.8,27.7,30.02,NNW,329,1.0,12.0,78,0.00,,SKC,0.12,VWS V14.01,2013-03-07 02:40:00,
2013-03-06 21:45:00,33.9,28.1,30.02,WNW,301,2.0,12.0,79,0.00,,SKC,0.12,VWS V14.01,2013-03-07 02:45:00,
2013-03-06 21:52:00,33.8,27.7,30.02,WNW,282,0.0,12.0,78,0.00,,SKC,0.12,VWS V14.01,2013-03-07 02:52:00,
2013-03-06 21:58:00,33.6,27.8,30.02,NNW,337,1.0,12.0,79,0.00,,SKC,0.12,VWS V14.01,2013-03-07 02:58:00,
2013-03-06 22:04:00,33.7,27.9,30.02,NNW,329,1.0,12.0,79,0.00,,SKC,0.12,VWS V14.01,2013-03-07 03:04:00,
2013-03-06 22:10:00,33.9,28.1,30.02,NW,305,1.0,12.0,79,0.00,,SKC,0.12,VWS V14.01,2013-03-07 03:10:00,
2013-03-06 22:15:00,33.9,28.1,30.02,NNW,342,1.0,12.0,79,0.00,,SKC,0.12,VWS V14.01,2013-03-07 03:15:00,
2013-03-06 22:20:00,34.0,28.2,30.03,WNW,292,2.0,12.0,79,0.00,,SKC,0.12,VWS V14.01,2013-03-07 03:20:00,
2013-03-06 22:25:00,34.3,28.2,30.03,NNW,347,1.0,12.0,78,0.00,,SKC,0.12,VWS V14.01,2013-03-07 03:25:00,
2013-03-06 22:30:00,34.5,28.4,30.03,NNW,332,0.0,12.0,78,0.00,,SKC,0.12,VWS V14.01,2013-03-07 03:30:00,
2013-03-06 22:35:00,34.7,28.5,30.03,NNW,327,1.0,12.0,78,0.00,,SKC,0.12,VWS V14.01,2013-03-07 03:35:00,
2013-03-06 22:42:00,35.1,28.6,30.03,NW,323,0.0,12.0,77,0.00,,SKC,0.12,VWS V14.01,2013-03-07 03:42:00,
2013-03-06 22:48:00,35.3,28.5,30.03,NW,313,2.0,12.0,76,0.00,,SKC,0.12,VWS V14.01,2013-03-07 03:48:00,
2013-03-06 22:54:00,35.5,28.4,30.04,North,1,0.0,12.0,75,0.00,,SKC,0.12,VWS V14.01,2013-03-07 03:54:00,
2013-03-06 23:00:00,35.7,28.6,30.04,NNW,342,0.0,12.0,75,0.00,,SKC,0.12,VWS V14.01,2013-03-07 04:00:00,
2013-03-06 23:05:00,35.7,28.6,30.04,NNW,327,0.0,12.0,75,0.00,,SKC,0.12,VWS V14.01,2013-03-07 04:05:00,
2013-03-06 23:12:00,35.6,28.5,30.04,NNW,328,0.0,12.0,75,0.00,,SKC,0.12,VWS V14.01,2013-03-07 04:12:00,
2013-03-06 23:18:00,35.5,28.4,30.04,NNW,330,0.0,12.0,75,0.00,,SKC,0.12,VWS V14.01,2013-03-07 04:18:00,
2013-03-06 23:24:00,35.5,28.4,30.04,NE,56,0.0,12.0,75,0.00,,SKC,0.12,VWS V14.01,2013-03-07 04:24:00,
2013-03-06 23:30:00,35.3,28.5,30.04,NW,311,0.0,12.0,76,0.00,,SKC,0.12,VWS V14.01,2013-03-07 04:30:00,
2013-03-06 23:35:00,35.4,28.6,30.05,NW,313,0.0,12.0,76,0.00,,SKC,0.12,VWS V14.01,2013-03-07 04:35:00,
2013-03-06 23:40:00,35.4,28.3,30.05,NNW,339,1.0,12.0,75,0.00,,SKC,0.12,VWS V14.01,2013-03-07 04:40:00,
2013-03-06 23:45:00,35.6,28.5,30.04,NW,321,1.0,12.0,75,0.00,,SKC,0.12,VWS V14.01,2013-03-07 04:45:00,